createdAt,value
2024-03-12T00:00:34.335Z,5.45
2024-03-12T00:03:00.599Z,5.39
2024-03-12T00:05:26.869Z,5.46
2024-03-12T00:07:53.136Z,5.46
2024-03-12T00:10:19.394Z,5.37
2024-03-12T00:12:46.045Z,5.39
2024-03-12T00:15:12.320Z,5.40
2024-03-12T00:17:38.622Z,5.44
2024-03-12T00:20:05.143Z,5.40
2024-03-12T00:22:31.393Z,5.44
2024-03-12T00:24:57.704Z,5.48
2024-03-12T00:27:24.058Z,5.42
2024-03-12T00:29:50.331Z,5.40
2024-03-12T00:32:16.599Z,5.35
2024-03-12T00:34:42.836Z,5.32
2024-03-12T00:37:09.136Z,5.33
2024-03-12T00:39:35.442Z,5.32
2024-03-12T00:42:01.745Z,5.31
2024-03-12T00:44:28.019Z,5.34
2024-03-12T00:46:54.301Z,5.38
2024-03-12T00:49:20.563Z,5.27
2024-03-12T00:51:46.839Z,5.19
2024-03-12T00:54:13.101Z,5.19
2024-03-12T00:56:39.352Z,5.15
2024-03-12T00:59:05.594Z,5.04
2024-03-12T01:01:31.923Z,5.08
2024-03-12T01:03:58.217Z,5.02
2024-03-12T01:06:24.545Z,4.97
2024-03-12T01:08:50.887Z,4.91
2024-03-12T01:11:17.179Z,4.95
2024-03-12T01:13:43.462Z,5.06
2024-03-12T01:16:09.772Z,5.09
2024-03-12T01:18:36.116Z,5.01
2024-03-12T01:21:02.572Z,4.89
2024-03-12T01:23:28.831Z,5.00
2024-03-12T01:25:55.110Z,4.94
2024-03-12T01:28:21.381Z,4.93
2024-03-12T01:30:47.681Z,5.03
2024-03-12T01:33:13.987Z,5.04
2024-03-12T01:35:41.609Z,4.93
2024-03-12T01:38:08.516Z,5.01
2024-03-12T01:40:34.772Z,5.10
2024-03-12T01:43:01.359Z,5.05
2024-03-12T01:45:27.784Z,5.00
2024-03-12T01:47:55.768Z,4.98
2024-03-12T01:50:22.300Z,4.99
2024-03-12T01:52:48.594Z,4.85
2024-03-12T01:55:15.078Z,4.84
2024-03-12T01:57:43.606Z,5.03
2024-03-12T02:00:10.069Z,5.07
2024-03-12T02:02:36.333Z,4.98
2024-03-12T02:05:02.609Z,4.89
2024-03-12T02:07:28.909Z,4.92
2024-03-12T02:09:55.208Z,4.99
2024-03-12T02:12:21.497Z,5.12
2024-03-12T02:14:47.759Z,4.96
2024-03-12T02:17:14.017Z,4.72
2024-03-12T02:19:40.302Z,4.76
2024-03-12T02:22:06.670Z,4.91
2024-03-12T02:24:33.454Z,5.00
2024-03-12T02:26:59.723Z,4.96
2024-03-12T02:29:25.984Z,4.81
2024-03-12T02:31:52.221Z,4.73
2024-03-12T02:34:18.483Z,4.90
2024-03-12T02:36:44.810Z,4.77
2024-03-12T02:39:11.101Z,4.82
2024-03-12T02:41:37.373Z,4.60
2024-03-12T02:44:03.645Z,4.65
2024-03-12T02:46:29.922Z,4.77
2024-03-12T02:48:56.461Z,4.75
2024-03-12T02:51:22.840Z,4.75
2024-03-12T02:53:49.144Z,4.86
2024-03-12T02:56:15.701Z,4.59
2024-03-12T02:58:41.966Z,4.65
2024-03-12T03:01:08.265Z,4.81
2024-03-12T03:03:34.685Z,4.86
2024-03-12T03:06:00.975Z,4.67
2024-03-12T03:08:27.226Z,4.64
2024-03-12T03:10:53.495Z,4.15
2024-03-12T03:13:19.898Z,4.12
2024-03-12T03:15:46.172Z,4.34
2024-03-12T03:18:12.831Z,4.37
2024-03-12T03:20:39.151Z,4.30
2024-03-12T03:23:05.506Z,4.02
2024-03-12T03:25:31.753Z,3.92
2024-03-12T03:27:58.036Z,3.97
2024-03-12T03:30:24.340Z,4.22
2024-03-12T03:32:50.602Z,4.04
2024-03-12T03:35:16.921Z,4.12
2024-03-12T03:37:43.178Z,4.22
2024-03-12T03:40:09.654Z,4.14
2024-03-12T03:42:36.051Z,4.13
2024-03-12T03:45:02.387Z,4.15
2024-03-12T03:47:28.674Z,4.13
2024-03-12T03:49:55.855Z,4.11
2024-03-12T03:52:22.101Z,4.09
2024-03-12T03:54:48.407Z,4.04
2024-03-12T03:57:14.710Z,4.15
2024-03-12T03:59:40.972Z,4.04
2024-03-12T04:02:07.538Z,4.10
2024-03-12T04:04:33.815Z,4.07
2024-03-12T04:07:00.149Z,4.05
2024-03-12T04:09:26.448Z,4.00
2024-03-12T04:11:52.737Z,3.98
2024-03-12T04:14:19.114Z,3.97
2024-03-12T04:16:45.582Z,3.95
2024-03-12T04:19:11.973Z,3.93
2024-03-12T04:21:38.319Z,3.94
2024-03-12T04:24:04.746Z,3.97
2024-03-12T04:26:31.001Z,3.91
2024-03-12T04:28:57.255Z,3.87
2024-03-12T04:31:23.522Z,3.83
2024-03-12T04:33:49.819Z,3.92
2024-03-12T04:36:16.110Z,3.96
2024-03-12T04:38:42.544Z,3.93
2024-03-12T04:41:08.944Z,3.98
2024-03-12T04:43:35.252Z,4.01
2024-03-12T04:46:01.555Z,3.99
2024-03-12T04:48:27.959Z,3.99
2024-03-12T04:50:54.272Z,3.91
2024-03-12T04:53:23.235Z,3.86
2024-03-12T04:55:49.761Z,3.80
2024-03-12T04:58:16.041Z,3.79
2024-03-12T05:00:42.376Z,3.76
2024-03-12T05:03:08.655Z,3.76
2024-03-12T05:05:34.937Z,3.77
2024-03-12T05:08:01.190Z,3.73
2024-03-12T05:10:27.453Z,3.71
2024-03-12T05:12:53.778Z,3.65
2024-03-12T05:15:20.059Z,3.73
2024-03-12T05:17:46.357Z,3.67
2024-03-12T05:20:12.661Z,3.71
2024-03-12T05:22:39.045Z,3.77
2024-03-12T05:25:05.583Z,3.61
2024-03-12T05:27:31.936Z,3.67
2024-03-12T05:29:58.227Z,3.68
2024-03-12T05:32:24.492Z,3.81
2024-03-12T05:34:50.751Z,3.81
2024-03-12T05:37:17.089Z,3.81
2024-03-12T05:39:43.422Z,3.83
2024-03-12T05:42:09.703Z,3.79
2024-03-12T05:44:35.964Z,3.80
2024-03-12T05:47:02.261Z,3.85
2024-03-12T05:49:28.539Z,3.72
2024-03-12T05:51:54.819Z,3.71
2024-03-12T05:54:21.119Z,3.82
2024-03-12T05:56:47.363Z,3.79
2024-03-12T05:59:13.625Z,3.83
2024-03-12T06:01:40.141Z,3.71
2024-03-12T06:04:07.707Z,3.72
2024-03-12T06:06:34.255Z,3.67
2024-03-12T06:09:00.709Z,3.82
2024-03-12T06:11:27.049Z,3.62
2024-03-12T06:13:53.369Z,3.38
2024-03-12T06:16:19.964Z,3.50
2024-03-12T06:18:46.406Z,3.47
2024-03-12T06:21:12.725Z,3.18
2024-03-12T06:23:39.291Z,3.19
2024-03-12T06:26:05.654Z,3.12
2024-03-12T06:28:32.557Z,3.18
2024-03-12T06:30:59.764Z,3.54
2024-03-12T06:33:26.062Z,3.53
2024-03-12T06:35:52.335Z,3.38
2024-03-12T06:38:18.606Z,3.31
2024-03-12T06:40:45.116Z,3.30
2024-03-12T06:43:12.090Z,3.24
2024-03-12T06:45:38.929Z,3.39
2024-03-12T06:48:24.333Z,3.31
2024-03-12T06:50:50.588Z,3.32
2024-03-12T06:53:16.881Z,3.25
2024-03-12T06:55:43.151Z,3.38
2024-03-12T06:58:09.464Z,3.51
2024-03-12T07:00:35.787Z,3.66
2024-03-12T07:03:02.066Z,3.68
2024-03-12T07:05:28.342Z,3.68
2024-03-12T07:07:55.127Z,3.77
2024-03-12T07:10:21.512Z,3.97
2024-03-12T07:12:47.863Z,4.04
2024-03-12T07:15:14.141Z,4.10
2024-03-12T07:17:40.435Z,4.26
2024-03-12T07:20:06.998Z,4.24
2024-03-12T07:22:33.323Z,4.21
2024-03-12T07:24:59.736Z,4.39
2024-03-12T07:27:26.168Z,4.56
2024-03-12T07:29:52.469Z,4.63
2024-03-12T07:32:18.847Z,4.49
2024-03-12T07:34:45.114Z,4.68
2024-03-12T07:37:11.634Z,4.48
2024-03-12T07:39:38.190Z,4.70
2024-03-12T07:42:04.656Z,4.79
2024-03-12T07:44:30.910Z,4.81
2024-03-12T07:46:57.161Z,4.96
2024-03-12T07:49:23.524Z,4.90
2024-03-12T07:51:49.832Z,4.99
2024-03-12T07:54:16.707Z,5.09
2024-03-12T07:56:42.984Z,5.12
2024-03-12T07:59:09.283Z,5.25
2024-03-12T08:01:35.582Z,5.23
2024-03-12T08:04:01.915Z,5.30
2024-03-12T08:06:28.204Z,5.29
2024-03-12T08:08:54.681Z,5.36
2024-03-12T08:11:21.052Z,5.47
2024-03-12T08:13:47.308Z,5.41
2024-03-12T08:16:13.705Z,5.48
2024-03-12T08:18:40.097Z,5.55
2024-03-12T08:21:06.412Z,5.58
2024-03-12T08:23:32.677Z,5.59
2024-03-12T08:26:00.762Z,5.72
2024-03-12T08:28:27.525Z,5.81
2024-03-12T08:30:53.854Z,5.86
2024-03-12T08:33:20.329Z,6.03
2024-03-12T08:35:46.795Z,5.88
2024-03-12T08:38:13.056Z,5.93
2024-03-12T08:40:39.323Z,6.03
2024-03-12T08:43:07.930Z,6.20
2024-03-12T08:45:35.357Z,6.16
2024-03-12T08:48:01.664Z,6.21
2024-03-12T08:50:27.940Z,6.20
2024-03-12T08:52:54.210Z,6.30
2024-03-12T08:55:20.522Z,6.20
2024-03-12T08:57:46.908Z,6.27
2024-03-12T09:00:13.391Z,6.23
2024-03-12T09:02:39.833Z,6.18
2024-03-12T09:05:06.340Z,6.27
2024-03-12T09:07:32.615Z,6.39
2024-03-12T09:09:58.910Z,6.52
2024-03-12T09:12:25.222Z,6.59
2024-03-12T09:14:51.477Z,6.58
2024-03-12T09:17:18.065Z,6.64
2024-03-12T09:19:44.363Z,6.55
2024-03-12T09:22:10.814Z,6.62
2024-03-12T09:24:37.250Z,6.82
2024-03-12T09:27:03.583Z,6.75
2024-03-12T09:29:29.823Z,6.82
2024-03-12T09:31:56.070Z,6.77
2024-03-12T09:34:22.432Z,6.85
2024-03-12T09:36:48.819Z,7.09
2024-03-12T09:39:15.114Z,7.21
2024-03-12T09:41:42.158Z,7.26
2024-03-12T09:44:08.826Z,7.37
2024-03-12T09:46:35.138Z,7.38
2024-03-12T09:49:01.443Z,7.59
2024-03-12T09:51:27.840Z,7.60
2024-03-12T09:53:54.114Z,7.67
2024-03-12T09:56:23.420Z,7.39
2024-03-12T09:58:49.700Z,7.44
2024-03-12T10:01:16.339Z,7.54
2024-03-12T10:03:42.755Z,7.54
2024-03-12T10:06:09.199Z,7.61
2024-03-12T10:08:35.536Z,7.64
2024-03-12T10:11:01.847Z,7.65
2024-03-12T10:13:28.146Z,7.54
2024-03-12T10:15:58.711Z,7.53
2024-03-12T10:18:25.036Z,7.39
2024-03-12T10:20:51.824Z,7.43
2024-03-12T10:23:18.391Z,7.69
2024-03-12T10:25:44.687Z,7.57
2024-03-12T10:28:10.952Z,7.60
2024-03-12T10:30:37.247Z,7.75
2024-03-12T10:33:13.577Z,7.84
2024-03-12T10:35:39.989Z,7.89
2024-03-12T10:38:07.290Z,7.85
2024-03-12T10:40:33.705Z,7.86
2024-03-12T10:43:00.020Z,7.82
2024-03-12T10:45:26.292Z,7.72
2024-03-12T10:47:52.601Z,7.65
2024-03-12T10:50:18.903Z,7.81
2024-03-12T10:52:45.733Z,7.85
2024-03-12T10:55:15.098Z,7.96
2024-03-12T10:57:41.388Z,8.22
2024-03-12T11:00:07.910Z,8.32
2024-03-12T11:02:34.611Z,8.35
2024-03-12T11:05:00.955Z,8.60
2024-03-12T11:07:27.200Z,8.70
2024-03-12T11:09:53.522Z,8.69
2024-03-12T11:12:22.363Z,8.80
2024-03-12T11:14:48.620Z,8.61
2024-03-12T11:17:27.424Z,8.70
2024-03-12T11:19:53.940Z,8.57
2024-03-12T11:22:20.255Z,8.53
2024-03-12T11:24:48.808Z,8.62
2024-03-12T11:27:27.235Z,8.64
2024-03-12T11:30:06.872Z,8.82
2024-03-12T11:32:34.026Z,8.96
2024-03-12T11:35:03.921Z,9.14
2024-03-12T11:37:30.192Z,9.46
2024-03-12T11:40:15.163Z,9.06
2024-03-12T11:42:41.497Z,8.78
2024-03-12T11:45:07.899Z,8.58
2024-03-12T11:47:34.782Z,8.60
2024-03-12T11:50:03.329Z,8.71
2024-03-12T11:52:31.158Z,8.45
2024-03-12T11:55:03.779Z,8.47
2024-03-12T11:57:30.300Z,8.48
2024-03-12T11:59:56.753Z,8.37
2024-03-12T12:02:23.070Z,8.43
2024-03-12T12:04:49.344Z,8.52
2024-03-12T12:07:15.786Z,8.66
2024-03-12T12:09:44.863Z,8.44
2024-03-12T12:12:11.127Z,8.58
2024-03-12T12:14:37.385Z,8.49
2024-03-12T12:17:03.917Z,8.54
2024-03-12T12:19:35.403Z,8.80
2024-03-12T12:22:04.945Z,8.95
2024-03-12T12:24:31.258Z,8.80
2024-03-12T12:26:57.506Z,8.92
2024-03-12T12:29:24.339Z,9.14
2024-03-12T12:31:50.586Z,9.33
2024-03-12T12:34:16.917Z,9.25
2024-03-12T12:36:43.509Z,9.39
2024-03-12T12:39:09.865Z,9.52
2024-03-12T12:41:36.520Z,9.63
2024-03-12T12:44:09.383Z,9.74
2024-03-12T12:46:36.406Z,9.98
2024-03-12T12:49:02.677Z,10.13
2024-03-12T12:51:28.941Z,10.04
2024-03-12T12:54:04.755Z,9.90
2024-03-12T12:56:32.856Z,9.96
2024-03-12T12:59:11.521Z,10.17
2024-03-12T13:01:37.813Z,10.28
